NCAR-RAP Real-Time Weather Data

Output produced by METARs form (08 May 2021  02:10 UTC)
found at http://weather.rap.ucar.edu/surface/
 
KPSF 080154Z AUTO 12003KT 10SM SCT070 OVC100 09/03 A2987 RMK AO2 SLP103 T00940033
KPSF 080054Z AUTO 13004KT 10SM BKN075 BKN095 10/03 A2986 RMK AO2 SLP104 T01000033
KPSF 072354Z AUTO 14008KT 10SM OVC050 12/03 A2986 RMK AO2 SLP104 T01170028 10156 20117 51007
KPSF 072254Z AUTO 11009KT 10SM OVC100 12/02 A2985 RMK AO2 SLP103 T01220017
KPSF 072154Z AUTO 13010G17KT 10SM SCT080 OVC095 13/02 A2985 RMK AO2 SLP104 T01330017
KPSF 072054Z AUTO 11008KT 10SM BKN070 OVC085 14/M01 A2984 RMK AO2 SLP099 T01391006 56009
KPSF 071954Z AUTO 16007KT 10SM OVC085 15/M01 A2984 RMK AO2 SLP099 T01501011
KPSF 071854Z AUTO 16007KT 10SM OVC080 15/M02 A2985 RMK AO2 SLP101 T01501017
KPSF 071754Z AUTO 16007KT 10SM OVC080 14/M02 A2987 RMK AO2 SLP107 T01441022 10156 20089 58017
KPSF 071654Z AUTO 16007G14KT 10SM SCT075 14/M03 A2989 RMK AO2 SLP112 T01441028
KPSF 071554Z AUTO VRB03KT BKN070 14/M03 A2991 RMK AO2 SLP117 T01441028 $
KPSF 071454Z AUTO 15007KT 060V180 CLR 14/M02 A2992 RMK AO2 SLP122 T01391022 56008 $
KPSF 071354Z AUTO 10SM CLR 13/M03 A2992 RMK AO2 SLP123 T01331033 $
KPSF 071254Z AUTO 05007KT 020V110 10SM 11/M02 A2994 RMK AO2 SLP129 T01111022 $
KPSF 071154Z AUTO VRB03KT 10SM CLR 09/M01 A2995 RMK AO2 SLP133 T00891006 10089 20022 50001
KPSF 071054Z AUTO 00000KT 10SM CLR 04/01 A2995 RMK AO2 SLP136 T00440006